createdAt,value
2022-11-28T00:03:59.810Z,143.35275
2022-11-28T00:09:01.002Z,142.07074
2022-11-28T00:14:01.930Z,142.07074
2022-11-28T00:19:02.906Z,142.70968
2022-11-28T00:24:03.893Z,142.70968
2022-11-28T00:29:04.928Z,143.35275
2022-11-28T00:34:05.938Z,144.65147
2022-11-28T00:39:06.955Z,144.0
2022-11-28T00:44:07.979Z,143.35275
2022-11-28T00:49:08.933Z,143.35275
2022-11-28T00:54:09.917Z,143.35275
2022-11-28T00:59:10.819Z,142.07074
2022-11-28T01:04:11.748Z,142.70968
2022-11-28T01:09:12.724Z,142.07074
2022-11-28T01:14:13.622Z,142.70968
2022-11-28T01:19:14.521Z,144.0
2022-11-28T01:24:15.545Z,144.0
2022-11-28T01:29:16.472Z,144.65147
2022-11-28T01:34:17.385Z,146.63158
2022-11-28T01:39:18.388Z,145.96721
2022-11-28T01:44:19.307Z,145.30719
2022-11-28T01:49:20.254Z,145.30719
2022-11-28T01:54:21.345Z,146.63158
2022-11-28T01:59:22.263Z,147.30033
2022-11-28T02:04:23.218Z,147.97351
2022-11-28T02:09:24.142Z,149.33333
2022-11-28T02:14:25.367Z,148.65116
2022-11-28T02:19:26.338Z,147.97351
2022-11-28T02:24:27.261Z,148.65116
2022-11-28T02:29:28.267Z,148.65116
2022-11-28T02:34:29.392Z,145.96721
2022-11-28T02:39:30.371Z,146.63158
2022-11-28T02:44:31.430Z,147.30033
2022-11-28T02:49:32.361Z,147.30033
2022-11-28T02:54:33.441Z,146.63158
2022-11-28T02:59:34.392Z,146.63158
2022-11-28T03:04:35.366Z,147.97351
2022-11-28T03:09:36.239Z,149.33333
2022-11-28T03:14:37.138Z,147.97351
2022-11-28T03:19:38.040Z,147.30033
2022-11-28T03:24:39.002Z,147.97351
2022-11-28T03:29:40.013Z,147.97351
2022-11-28T03:34:41.247Z,147.30033
2022-11-28T03:39:42.539Z,148.65116
2022-11-28T03:44:43.813Z,149.33333
2022-11-28T03:49:45.060Z,149.33333
2022-11-28T03:54:46.114Z,150.71141
2022-11-28T03:59:47.073Z,150.71141
2022-11-28T04:04:47.965Z,148.65116
2022-11-28T04:09:48.875Z,150.71141
2022-11-28T04:14:49.842Z,151.40741
2022-11-28T04:19:50.711Z,151.40741
2022-11-28T04:24:51.631Z,150.02007
2022-11-28T04:29:52.548Z,151.40741
2022-11-28T04:34:53.777Z,152.10811
2022-11-28T04:39:54.938Z,151.40741
2022-11-28T04:44:55.991Z,151.40741
2022-11-28T04:49:56.926Z,152.81356
2022-11-28T04:54:57.905Z,152.10811
2022-11-28T04:59:58.902Z,150.71141
2022-11-28T05:04:59.812Z,150.71141
2022-11-28T05:10:00.720Z,150.02007
2022-11-28T05:15:01.617Z,149.33333
2022-11-28T05:20:02.502Z,147.97351
2022-11-28T05:25:03.824Z,147.97351
2022-11-28T05:30:04.763Z,146.63158
2022-11-28T05:35:05.735Z,148.65116
2022-11-28T05:40:06.805Z,147.30033
2022-11-28T05:45:07.948Z,146.63158
2022-11-28T05:50:08.920Z,146.63158
2022-11-28T05:55:09.904Z,145.96721
2022-11-28T06:00:10.871Z,146.63158
2022-11-28T06:05:40.410Z,147.30033
2022-11-28T06:10:42.582Z,150.02007
2022-11-28T06:15:43.780Z,149.33333
2022-11-28T06:20:44.838Z,150.02007
2022-11-28T06:25:45.798Z,151.40741
2022-11-28T06:30:47.726Z,152.10811
2022-11-28T06:35:48.828Z,152.10811
2022-11-28T06:40:50.198Z,149.33333
2022-11-28T06:45:51.258Z,149.33333
2022-11-28T06:50:52.205Z,149.33333
2022-11-28T06:55:53.160Z,147.97351
2022-11-28T07:00:54.179Z,148.65116
2022-11-28T07:05:55.402Z,147.97351
2022-11-28T07:10:56.332Z,147.30033
2022-11-28T07:15:57.221Z,147.30033
2022-11-28T07:20:58.270Z,147.97351
2022-11-28T07:25:59.185Z,148.65116
2022-11-28T07:31:00.175Z,147.30033
2022-11-28T07:36:01.093Z,145.96721
2022-11-28T07:41:01.979Z,146.63158
2022-11-28T07:46:03.001Z,144.65147
2022-11-28T07:51:03.962Z,145.96721
2022-11-28T07:56:05.190Z,144.65147
2022-11-28T08:01:06.147Z,147.97351
2022-11-28T08:06:07.093Z,149.33333
2022-11-28T08:11:08.048Z,150.02007
2022-11-28T08:16:08.997Z,150.02007
2022-11-28T08:21:10.171Z,150.71141
2022-11-28T08:26:11.088Z,147.97351
2022-11-28T08:31:12.213Z,147.30033
2022-11-28T08:36:13.195Z,147.97351
2022-11-28T08:41:14.135Z,145.96721
2022-11-28T08:46:15.147Z,145.96721
2022-11-28T08:51:16.076Z,146.63158
2022-11-28T08:56:17.112Z,145.96721
2022-11-28T09:01:18.108Z,143.35275
2022-11-28T09:06:19.040Z,145.96721
2022-11-28T09:11:19.923Z,145.96721
2022-11-28T09:16:20.971Z,147.97351
2022-11-28T09:21:21.931Z,146.63158
2022-11-28T09:26:22.847Z,144.65147
2022-11-28T09:31:23.988Z,150.02007
2022-11-28T09:36:25.011Z,150.02007
2022-11-28T09:41:26.201Z,144.65147
2022-11-28T09:46:27.225Z,146.63158
2022-11-28T09:51:28.201Z,147.97351
2022-11-28T09:56:29.125Z,144.0
2022-11-28T10:01:30.071Z,143.35275
2022-11-28T10:06:30.987Z,142.70968
2022-11-28T10:11:31.887Z,146.63158
2022-11-28T10:16:32.908Z,147.97351
2022-11-28T10:21:33.860Z,146.63158
2022-11-28T10:26:34.767Z,147.30033
2022-11-28T10:31:35.682Z,146.63158
2022-11-28T10:36:36.602Z,145.96721
2022-11-28T10:41:37.595Z,142.70968
2022-11-28T10:46:38.547Z,145.30719
2022-11-28T10:51:39.443Z,145.30719
2022-11-28T10:56:40.456Z,144.0
2022-11-28T11:01:43.763Z,142.07074
2022-11-28T11:07:07.558Z,143.35275
2022-11-28T11:12:11.073Z,142.07074
2022-11-28T11:17:11.966Z,144.65147
2022-11-28T11:22:12.916Z,144.0
2022-11-28T11:27:13.802Z,143.35275
2022-11-28T11:32:14.748Z,141.4359
2022-11-28T11:37:15.744Z,142.07074
2022-11-28T11:42:16.656Z,144.65147
2022-11-28T11:47:17.617Z,142.70968
2022-11-28T11:52:18.537Z,140.17834
2022-11-28T11:57:32.605Z,142.07074
2022-11-28T12:02:34.840Z,138.93671
2022-11-28T12:07:35.878Z,137.71069
2022-11-28T12:12:36.810Z,135.30435
2022-11-28T12:34:19.475Z,137.71069
2022-11-28T12:39:20.471Z,135.90031
2022-11-28T12:44:21.385Z,137.10345
2022-11-28T12:49:22.282Z,137.10345
2022-11-28T12:54:23.193Z,137.71069
2022-11-28T12:59:24.116Z,136.5
2022-11-28T13:04:25.164Z,136.5
2022-11-28T13:09:26.348Z,137.10345
2022-11-28T13:14:27.324Z,134.71207
2022-11-28T13:19:28.247Z,138.93671
2022-11-28T13:24:29.179Z,139.55556
2022-11-28T13:29:30.152Z,142.07074
2022-11-28T13:34:31.051Z,140.80511
2022-11-28T13:39:31.954Z,143.35275
2022-11-28T13:44:32.874Z,141.4359
2022-11-28T13:49:33.811Z,142.70968
2022-11-28T13:54:34.736Z,142.07074
2022-11-28T13:59:35.690Z,140.80511
2022-11-28T14:04:36.636Z,139.55556
2022-11-28T14:09:37.560Z,140.80511
2022-11-28T14:14:38.488Z,137.71069
2022-11-28T14:19:39.410Z,138.32177
2022-11-28T14:24:40.342Z,136.5
2022-11-28T14:29:41.289Z,140.17834
2022-11-28T20:55:56.846Z,134.71207
2022-11-28T21:00:57.998Z,134.71207
2022-11-28T21:06:01.272Z,134.71207
2022-11-28T21:11:03.680Z,134.71207
2022-11-28T21:16:04.883Z,134.71207
2022-11-28T21:21:06.099Z,134.12346
